sensor_id;sensor_type;location;lat;lon;timestamp;P1;durP1;ratioP1;P2;durP2;ratioP2
4738;SDS011;2383;48.632;10.156;2023-04-10T00:02:11;14.97;;;10.23;;
4738;SDS011;2383;48.632;10.156;2023-04-10T00:06:14;15.80;;;10.83;;
4738;SDS011;2383;48.632;10.156;2023-04-10T00:10:16;15.60;;;10.67;;
4738;SDS011;2383;48.632;10.156;2023-04-10T00:14:18;15.37;;;10.73;;
4738;SDS011;2383;48.632;10.156;2023-04-10T00:18:23;19.30;;;10.33;;
4738;SDS011;2383;48.632;10.156;2023-04-10T00:22:26;14.87;;;10.70;;
4738;SDS011;2383;48.632;10.156;2023-04-10T00:26:28;16.00;;;11.73;;
4738;SDS011;2383;48.632;10.156;2023-04-10T00:30:31;13.87;;;10.10;;
4738;SDS011;2383;48.632;10.156;2023-04-10T00:34:33;15.10;;;10.77;;
4738;SDS011;2383;48.632;10.156;2023-04-10T00:38:35;16.63;;;11.07;;
4738;SDS011;2383;48.632;10.156;2023-04-10T00:42:38;16.63;;;11.80;;
4738;SDS011;2383;48.632;10.156;2023-04-10T00:46:41;17.07;;;11.23;;
4738;SDS011;2383;48.632;10.156;2023-04-10T00:50:44;24.40;;;14.43;;
4738;SDS011;2383;48.632;10.156;2023-04-10T00:54:47;29.27;;;17.87;;
4738;SDS011;2383;48.632;10.156;2023-04-10T00:58:49;22.10;;;14.03;;
4738;SDS011;2383;48.632;10.156;2023-04-10T01:02:52;17.07;;;10.83;;
4738;SDS011;2383;48.632;10.156;2023-04-10T01:16:05;19.37;;;12.13;;
4738;SDS011;2383;48.632;10.156;2023-04-10T01:20:15;18.33;;;11.93;;
4738;SDS011;2383;48.632;10.156;2023-04-10T01:24:35;17.27;;;12.53;;
4738;SDS011;2383;48.632;10.156;2023-04-10T01:33:00;17.50;;;12.17;;
4738;SDS011;2383;48.632;10.156;2023-04-10T01:37:07;18.90;;;12.33;;
4738;SDS011;2383;48.632;10.156;2023-04-10T01:41:12;17.40;;;12.00;;
4738;SDS011;2383;48.632;10.156;2023-04-10T01:45:17;16.63;;;11.20;;
4738;SDS011;2383;48.632;10.156;2023-04-10T01:49:25;17.00;;;11.67;;
4738;SDS011;2383;48.632;10.156;2023-04-10T01:53:35;15.53;;;10.80;;
4738;SDS011;2383;48.632;10.156;2023-04-10T01:57:39;14.90;;;10.70;;
4738;SDS011;2383;48.632;10.156;2023-04-10T02:01:41;16.90;;;10.70;;
4738;SDS011;2383;48.632;10.156;2023-04-10T02:05:53;17.90;;;11.47;;
4738;SDS011;2383;48.632;10.156;2023-04-10T02:14:33;15.50;;;10.40;;
4738;SDS011;2383;48.632;10.156;2023-04-10T02:18:39;17.50;;;11.80;;
4738;SDS011;2383;48.632;10.156;2023-04-10T02:22:42;18.57;;;11.83;;
4738;SDS011;2383;48.632;10.156;2023-04-10T02:26:49;15.57;;;10.77;;
4738;SDS011;2383;48.632;10.156;2023-04-10T02:30:52;14.23;;;10.17;;
4738;SDS011;2383;48.632;10.156;2023-04-10T02:34:55;16.37;;;11.10;;
4738;SDS011;2383;48.632;10.156;2023-04-10T02:38:57;18.60;;;12.00;;
4738;SDS011;2383;48.632;10.156;2023-04-10T02:43:00;18.10;;;11.60;;
4738;SDS011;2383;48.632;10.156;2023-04-10T02:47:03;17.57;;;11.73;;
4738;SDS011;2383;48.632;10.156;2023-04-10T02:51:07;21.23;;;11.47;;
4738;SDS011;2383;48.632;10.156;2023-04-10T02:55:10;18.77;;;11.77;;
4738;SDS011;2383;48.632;10.156;2023-04-10T02:59:13;17.20;;;10.93;;
4738;SDS011;2383;48.632;10.156;2023-04-10T03:03:19;17.47;;;12.43;;
4738;SDS011;2383;48.632;10.156;2023-04-10T03:07:25;16.23;;;11.70;;
4738;SDS011;2383;48.632;10.156;2023-04-10T03:11:28;17.40;;;12.27;;
4738;SDS011;2383;48.632;10.156;2023-04-10T03:15:30;18.57;;;12.60;;
4738;SDS011;2383;48.632;10.156;2023-04-10T03:19:34;17.40;;;11.90;;
4738;SDS011;2383;48.632;10.156;2023-04-10T03:23:36;16.47;;;11.67;;
4738;SDS011;2383;48.632;10.156;2023-04-10T03:27:38;18.20;;;12.10;;
4738;SDS011;2383;48.632;10.156;2023-04-10T03:31:41;17.50;;;11.67;;
4738;SDS011;2383;48.632;10.156;2023-04-10T03:35:44;17.33;;;11.50;;
4738;SDS011;2383;48.632;10.156;2023-04-10T03:39:47;17.43;;;11.17;;
4738;SDS011;2383;48.632;10.156;2023-04-10T03:43:49;16.87;;;11.10;;
4738;SDS011;2383;48.632;10.156;2023-04-10T03:47:51;18.67;;;12.37;;
4738;SDS011;2383;48.632;10.156;2023-04-10T03:51:54;16.37;;;11.57;;
4738;SDS011;2383;48.632;10.156;2023-04-10T03:55:56;20.03;;;13.70;;
4738;SDS011;2383;48.632;10.156;2023-04-10T03:59:59;20.47;;;12.17;;
4738;SDS011;2383;48.632;10.156;2023-04-10T04:04:09;19.23;;;12.33;;
4738;SDS011;2383;48.632;10.156;2023-04-10T04:08:29;16.97;;;11.30;;
4738;SDS011;2383;48.632;10.156;2023-04-10T04:12:50;18.43;;;11.37;;
4738;SDS011;2383;48.632;10.156;2023-04-10T04:17:08;16.50;;;10.60;;
4738;SDS011;2383;48.632;10.156;2023-04-10T04:21:28;16.77;;;10.77;;
4738;SDS011;2383;48.632;10.156;2023-04-10T04:25:44;18.27;;;12.07;;
4738;SDS011;2383;48.632;10.156;2023-04-10T04:30:09;15.13;;;11.20;;
4738;SDS011;2383;48.632;10.156;2023-04-10T04:34:20;18.00;;;11.77;;
4738;SDS011;2383;48.632;10.156;2023-04-10T04:38:40;18.93;;;11.80;;
4738;SDS011;2383;48.632;10.156;2023-04-10T04:42:45;17.87;;;12.33;;
4738;SDS011;2383;48.632;10.156;2023-04-10T04:47:08;18.07;;;11.70;;
4738;SDS011;2383;48.632;10.156;2023-04-10T04:51:39;17.07;;;11.67;;
4738;SDS011;2383;48.632;10.156;2023-04-10T04:55:46;18.07;;;12.20;;
4738;SDS011;2383;48.632;10.156;2023-04-10T05:00:07;18.63;;;12.67;;
4738;SDS011;2383;48.632;10.156;2023-04-10T05:04:33;19.37;;;12.63;;
4738;SDS011;2383;48.632;10.156;2023-04-10T05:08:42;19.17;;;12.67;;
4738;SDS011;2383;48.632;10.156;2023-04-10T05:13:10;18.97;;;12.43;;
4738;SDS011;2383;48.632;10.156;2023-04-10T05:17:46;18.37;;;12.80;;
4738;SDS011;2383;48.632;10.156;2023-04-10T05:22:11;18.90;;;11.57;;
4738;SDS011;2383;48.632;10.156;2023-04-10T05:26:25;16.73;;;11.80;;
4738;SDS011;2383;48.632;10.156;2023-04-10T05:30:44;24.10;;;14.33;;
4738;SDS011;2383;48.632;10.156;2023-04-10T05:35:05;29.80;;;16.97;;
4738;SDS011;2383;48.632;10.156;2023-04-10T05:39:16;24.90;;;14.83;;
4738;SDS011;2383;48.632;10.156;2023-04-10T05:43:37;24.43;;;14.30;;
4738;SDS011;2383;48.632;10.156;2023-04-10T05:47:54;19.90;;;13.80;;
4738;SDS011;2383;48.632;10.156;2023-04-10T05:52:22;20.77;;;12.43;;
4738;SDS011;2383;48.632;10.156;2023-04-10T05:56:43;21.27;;;13.13;;
4738;SDS011;2383;48.632;10.156;2023-04-10T06:01:17;21.40;;;13.10;;
4738;SDS011;2383;48.632;10.156;2023-04-10T06:05:28;23.27;;;14.40;;
4738;SDS011;2383;48.632;10.156;2023-04-10T06:09:35;29.77;;;18.00;;
4738;SDS011;2383;48.632;10.156;2023-04-10T06:13:40;25.50;;;16.00;;
4738;SDS011;2383;48.632;10.156;2023-04-10T06:17:42;26.07;;;16.43;;
4738;SDS011;2383;48.632;10.156;2023-04-10T06:21:45;26.80;;;16.70;;
4738;SDS011;2383;48.632;10.156;2023-04-10T06:25:47;26.43;;;16.10;;
4738;SDS011;2383;48.632;10.156;2023-04-10T06:29:49;26.50;;;16.87;;
4738;SDS011;2383;48.632;10.156;2023-04-10T06:33:54;23.87;;;15.50;;
4738;SDS011;2383;48.632;10.156;2023-04-10T06:37:57;22.70;;;14.83;;
4738;SDS011;2383;48.632;10.156;2023-04-10T06:41:59;22.83;;;14.33;;
4738;SDS011;2383;48.632;10.156;2023-04-10T06:46:15;23.13;;;15.33;;
4738;SDS011;2383;48.632;10.156;2023-04-10T06:50:18;22.10;;;14.53;;
4738;SDS011;2383;48.632;10.156;2023-04-10T06:54:20;28.00;;;17.17;;
4738;SDS011;2383;48.632;10.156;2023-04-10T06:58:22;22.60;;;14.60;;
4738;SDS011;2383;48.632;10.156;2023-04-10T07:02:25;19.67;;;13.90;;
4738;SDS011;2383;48.632;10.156;2023-04-10T07:06:27;21.33;;;14.30;;
4738;SDS011;2383;48.632;10.156;2023-04-10T07:10:29;19.50;;;13.67;;
4738;SDS011;2383;48.632;10.156;2023-04-10T07:14:32;21.10;;;14.67;;
4738;SDS011;2383;48.632;10.156;2023-04-10T07:18:37;18.50;;;13.57;;
4738;SDS011;2383;48.632;10.156;2023-04-10T07:22:41;19.90;;;13.53;;
4738;SDS011;2383;48.632;10.156;2023-04-10T07:26:43;20.93;;;13.57;;
4738;SDS011;2383;48.632;10.156;2023-04-10T07:30:46;26.97;;;12.90;;
4738;SDS011;2383;48.632;10.156;2023-04-10T07:34:48;17.73;;;11.83;;
4738;SDS011;2383;48.632;10.156;2023-04-10T07:38:50;16.27;;;12.03;;
4738;SDS011;2383;48.632;10.156;2023-04-10T07:42:52;16.57;;;11.87;;
4738;SDS011;2383;48.632;10.156;2023-04-10T07:46:54;17.27;;;11.43;;
4738;SDS011;2383;48.632;10.156;2023-04-10T07:50:57;15.40;;;10.63;;
4738;SDS011;2383;48.632;10.156;2023-04-10T07:55:02;16.17;;;12.07;;
4738;SDS011;2383;48.632;10.156;2023-04-10T07:59:05;16.97;;;11.97;;
4738;SDS011;2383;48.632;10.156;2023-04-10T08:03:07;17.77;;;12.27;;
4738;SDS011;2383;48.632;10.156;2023-04-10T08:07:10;16.97;;;11.93;;
4738;SDS011;2383;48.632;10.156;2023-04-10T08:15:28;14.57;;;10.63;;
4738;SDS011;2383;48.632;10.156;2023-04-10T08:19:30;15.47;;;11.07;;
4738;SDS011;2383;48.632;10.156;2023-04-10T08:23:32;14.47;;;10.83;;
4738;SDS011;2383;48.632;10.156;2023-04-10T08:27:34;15.40;;;11.17;;
4738;SDS011;2383;48.632;10.156;2023-04-10T08:31:37;14.93;;;10.87;;
4738;SDS011;2383;48.632;10.156;2023-04-10T08:35:39;12.67;;;10.17;;
4738;SDS011;2383;48.632;10.156;2023-04-10T08:39:41;14.03;;;10.87;;
4738;SDS011;2383;48.632;10.156;2023-04-10T08:43:43;13.23;;;9.77;;
4738;SDS011;2383;48.632;10.156;2023-04-10T08:47:46;13.50;;;10.37;;
4738;SDS011;2383;48.632;10.156;2023-04-10T08:51:54;14.17;;;10.57;;
4738;SDS011;2383;48.632;10.156;2023-04-10T08:55:58;12.33;;;9.83;;
4738;SDS011;2383;48.632;10.156;2023-04-10T09:00:02;13.77;;;9.97;;
4738;SDS011;2383;48.632;10.156;2023-04-10T09:04:23;13.67;;;10.80;;
4738;SDS011;2383;48.632;10.156;2023-04-10T09:08:26;12.63;;;10.47;;
4738;SDS011;2383;48.632;10.156;2023-04-10T09:12:41;13.07;;;9.97;;
4738;SDS011;2383;48.632;10.156;2023-04-10T09:16:44;13.53;;;10.50;;
4738;SDS011;2383;48.632;10.156;2023-04-10T09:20:46;13.80;;;10.43;;
4738;SDS011;2383;48.632;10.156;2023-04-10T09:24:51;14.37;;;10.93;;
4738;SDS011;2383;48.632;10.156;2023-04-10T09:28:54;14.07;;;10.93;;
4738;SDS011;2383;48.632;10.156;2023-04-10T09:33:01;15.53;;;11.03;;
4738;SDS011;2383;48.632;10.156;2023-04-10T09:37:04;13.37;;;9.47;;
4738;SDS011;2383;48.632;10.156;2023-04-10T09:41:06;11.10;;;8.90;;
4738;SDS011;2383;48.632;10.156;2023-04-10T09:45:09;11.70;;;9.23;;
4738;SDS011;2383;48.632;10.156;2023-04-10T09:49:11;9.63;;;7.80;;
4738;SDS011;2383;48.632;10.156;2023-04-10T09:53:14;10.70;;;8.45;;
4738;SDS011;2383;48.632;10.156;2023-04-10T09:57:20;11.17;;;8.53;;
4738;SDS011;2383;48.632;10.156;2023-04-10T10:01:24;8.57;;;7.10;;
4738;SDS011;2383;48.632;10.156;2023-04-10T10:05:30;8.27;;;6.97;;
4738;SDS011;2383;48.632;10.156;2023-04-10T10:09:33;10.13;;;6.93;;
4738;SDS011;2383;48.632;10.156;2023-04-10T10:13:40;8.75;;;6.80;;
4738;SDS011;2383;48.632;10.156;2023-04-10T10:22:22;9.20;;;6.80;;
4738;SDS011;2383;48.632;10.156;2023-04-10T10:26:27;7.95;;;6.28;;
4738;SDS011;2383;48.632;10.156;2023-04-10T10:30:33;7.83;;;6.23;;
4738;SDS011;2383;48.632;10.156;2023-04-10T10:34:36;9.30;;;6.47;;
4738;SDS011;2383;48.632;10.156;2023-04-10T10:38:39;7.53;;;6.22;;
4738;SDS011;2383;48.632;10.156;2023-04-10T10:42:45;8.18;;;6.35;;
4738;SDS011;2383;48.632;10.156;2023-04-10T10:51:06;7.63;;;6.03;;
4738;SDS011;2383;48.632;10.156;2023-04-10T11:03:46;7.78;;;5.82;;
4738;SDS011;2383;48.632;10.156;2023-04-10T11:08:23;6.80;;;6.07;;
4738;SDS011;2383;48.632;10.156;2023-04-10T11:12:18;6.10;;;5.27;;
4738;SDS011;2383;48.632;10.156;2023-04-10T11:20:32;5.28;;;4.72;;
4738;SDS011;2383;48.632;10.156;2023-04-10T11:25:10;4.43;;;3.92;;
4738;SDS011;2383;48.632;10.156;2023-04-10T11:33:18;9.85;;;8.88;;
4738;SDS011;2383;48.632;10.156;2023-04-10T11:37:23;3.70;;;3.38;;
4738;SDS011;2383;48.632;10.156;2023-04-10T11:41:26;3.72;;;3.40;;
4738;SDS011;2383;48.632;10.156;2023-04-10T11:45:30;3.05;;;2.75;;
4738;SDS011;2383;48.632;10.156;2023-04-10T11:49:33;3.20;;;2.90;;
4738;SDS011;2383;48.632;10.156;2023-04-10T11:53:37;3.67;;;3.28;;
4738;SDS011;2383;48.632;10.156;2023-04-10T11:57:40;2.22;;;2.03;;
4738;SDS011;2383;48.632;10.156;2023-04-10T12:01:42;2.72;;;2.42;;
4738;SDS011;2383;48.632;10.156;2023-04-10T12:05:48;4.05;;;2.67;;
4738;SDS011;2383;48.632;10.156;2023-04-10T12:09:56;3.38;;;3.08;;
4738;SDS011;2383;48.632;10.156;2023-04-10T12:13:59;3.10;;;2.80;;
4738;SDS011;2383;48.632;10.156;2023-04-10T12:18:01;2.40;;;2.17;;
4738;SDS011;2383;48.632;10.156;2023-04-10T12:22:04;2.95;;;2.50;;
4738;SDS011;2383;48.632;10.156;2023-04-10T12:26:15;2.88;;;2.63;;
4738;SDS011;2383;48.632;10.156;2023-04-10T12:30:18;3.25;;;2.80;;
4738;SDS011;2383;48.632;10.156;2023-04-10T12:34:20;3.30;;;2.85;;
4738;SDS011;2383;48.632;10.156;2023-04-10T12:38:38;2.72;;;2.50;;
4738;SDS011;2383;48.632;10.156;2023-04-10T12:42:44;2.67;;;2.38;;
4738;SDS011;2383;48.632;10.156;2023-04-10T12:46:46;2.97;;;2.67;;
4738;SDS011;2383;48.632;10.156;2023-04-10T12:50:48;3.15;;;2.53;;
4738;SDS011;2383;48.632;10.156;2023-04-10T12:54:51;2.85;;;2.47;;
4738;SDS011;2383;48.632;10.156;2023-04-10T12:59:05;4.65;;;2.80;;
4738;SDS011;2383;48.632;10.156;2023-04-10T13:03:08;2.63;;;2.42;;
4738;SDS011;2383;48.632;10.156;2023-04-10T13:07:10;2.97;;;2.67;;
4738;SDS011;2383;48.632;10.156;2023-04-10T13:11:12;2.30;;;2.10;;
4738;SDS011;2383;48.632;10.156;2023-04-10T13:15:14;2.83;;;2.40;;
4738;SDS011;2383;48.632;10.156;2023-04-10T13:19:17;3.42;;;2.80;;
4738;SDS011;2383;48.632;10.156;2023-04-10T13:23:19;3.97;;;2.78;;
4738;SDS011;2383;48.632;10.156;2023-04-10T13:27:21;3.03;;;2.72;;
4738;SDS011;2383;48.632;10.156;2023-04-10T13:31:23;2.60;;;2.40;;
4738;SDS011;2383;48.632;10.156;2023-04-10T13:35:26;2.78;;;2.40;;
4738;SDS011;2383;48.632;10.156;2023-04-10T13:39:28;3.15;;;2.50;;
4738;SDS011;2383;48.632;10.156;2023-04-10T13:43:31;3.17;;;2.88;;
4738;SDS011;2383;48.632;10.156;2023-04-10T13:47:33;3.20;;;2.80;;
4738;SDS011;2383;48.632;10.156;2023-04-10T13:51:36;2.97;;;2.63;;
4738;SDS011;2383;48.632;10.156;2023-04-10T13:55:38;3.63;;;3.20;;
4738;SDS011;2383;48.632;10.156;2023-04-10T13:59:44;3.15;;;2.80;;
4738;SDS011;2383;48.632;10.156;2023-04-10T14:03:46;3.40;;;2.83;;
4738;SDS011;2383;48.632;10.156;2023-04-10T14:07:48;3.90;;;2.75;;
4738;SDS011;2383;48.632;10.156;2023-04-10T14:11:52;3.50;;;2.90;;
4738;SDS011;2383;48.632;10.156;2023-04-10T14:15:55;3.22;;;2.88;;
4738;SDS011;2383;48.632;10.156;2023-04-10T14:19:57;2.38;;;2.15;;
4738;SDS011;2383;48.632;10.156;2023-04-10T14:23:59;2.70;;;2.30;;
4738;SDS011;2383;48.632;10.156;2023-04-10T14:28:01;2.63;;;2.25;;
4738;SDS011;2383;48.632;10.156;2023-04-10T14:32:03;3.13;;;2.40;;
4738;SDS011;2383;48.632;10.156;2023-04-10T14:36:06;2.92;;;2.60;;
4738;SDS011;2383;48.632;10.156;2023-04-10T14:40:08;4.50;;;2.88;;
4738;SDS011;2383;48.632;10.156;2023-04-10T14:44:10;2.63;;;2.42;;
4738;SDS011;2383;48.632;10.156;2023-04-10T14:48:12;2.83;;;2.60;;
4738;SDS011;2383;48.632;10.156;2023-04-10T14:52:15;2.78;;;2.20;;
4738;SDS011;2383;48.632;10.156;2023-04-10T14:56:17;2.72;;;2.42;;
4738;SDS011;2383;48.632;10.156;2023-04-10T15:00:19;2.50;;;2.30;;
4738;SDS011;2383;48.632;10.156;2023-04-10T15:04:21;2.53;;;2.33;;
4738;SDS011;2383;48.632;10.156;2023-04-10T15:08:23;2.63;;;2.42;;
4738;SDS011;2383;48.632;10.156;2023-04-10T15:12:26;3.00;;;2.60;;
4738;SDS011;2383;48.632;10.156;2023-04-10T15:16:28;3.33;;;2.60;;
4738;SDS011;2383;48.632;10.156;2023-04-10T15:20:31;3.58;;;2.90;;
4738;SDS011;2383;48.632;10.156;2023-04-10T15:24:33;4.22;;;2.30;;
4738;SDS011;2383;48.632;10.156;2023-04-10T15:28:51;3.17;;;2.85;;
4738;SDS011;2383;48.632;10.156;2023-04-10T15:32:53;3.30;;;2.92;;
4738;SDS011;2383;48.632;10.156;2023-04-10T15:36:55;3.30;;;2.83;;
4738;SDS011;2383;48.632;10.156;2023-04-10T15:40:56;3.70;;;2.83;;
4738;SDS011;2383;48.632;10.156;2023-04-10T15:44:58;3.05;;;2.67;;
4738;SDS011;2383;48.632;10.156;2023-04-10T15:49:00;3.35;;;2.78;;
4738;SDS011;2383;48.632;10.156;2023-04-10T15:53:03;2.53;;;2.33;;
4738;SDS011;2383;48.632;10.156;2023-04-10T15:57:05;3.75;;;2.75;;
4738;SDS011;2383;48.632;10.156;2023-04-10T16:01:07;3.30;;;3.00;;
4738;SDS011;2383;48.632;10.156;2023-04-10T16:05:09;3.03;;;2.72;;
4738;SDS011;2383;48.632;10.156;2023-04-10T16:09:11;3.35;;;2.60;;
4738;SDS011;2383;48.632;10.156;2023-04-10T16:13:26;2.50;;;2.30;;
4738;SDS011;2383;48.632;10.156;2023-04-10T16:17:28;3.75;;;2.80;;
4738;SDS011;2383;48.632;10.156;2023-04-10T16:21:30;2.70;;;2.45;;
4738;SDS011;2383;48.632;10.156;2023-04-10T16:25:32;3.08;;;2.78;;
4738;SDS011;2383;48.632;10.156;2023-04-10T16:29:34;4.53;;;3.50;;
4738;SDS011;2383;48.632;10.156;2023-04-10T16:33:36;9.70;;;6.82;;
4738;SDS011;2383;48.632;10.156;2023-04-10T16:37:38;9.43;;;7.15;;
4738;SDS011;2383;48.632;10.156;2023-04-10T16:41:40;12.18;;;9.13;;
4738;SDS011;2383;48.632;10.156;2023-04-10T16:45:42;3.42;;;3.13;;
4738;SDS011;2383;48.632;10.156;2023-04-10T16:49:44;9.48;;;7.90;;
4738;SDS011;2383;48.632;10.156;2023-04-10T16:53:47;3.55;;;3.20;;
4738;SDS011;2383;48.632;10.156;2023-04-10T16:57:49;6.78;;;5.20;;
4738;SDS011;2383;48.632;10.156;2023-04-10T17:01:51;4.95;;;4.07;;
4738;SDS011;2383;48.632;10.156;2023-04-10T17:05:53;6.30;;;3.42;;
4738;SDS011;2383;48.632;10.156;2023-04-10T17:09:55;26.05;;;15.98;;
4738;SDS011;2383;48.632;10.156;2023-04-10T17:13:57;35.20;;;21.25;;
4738;SDS011;2383;48.632;10.156;2023-04-10T17:17:59;46.97;;;28.45;;
4738;SDS011;2383;48.632;10.156;2023-04-10T17:22:01;42.97;;;26.85;;
4738;SDS011;2383;48.632;10.156;2023-04-10T17:26:03;22.73;;;14.30;;
4738;SDS011;2383;48.632;10.156;2023-04-10T17:30:10;8.32;;;5.70;;
4738;SDS011;2383;48.632;10.156;2023-04-10T17:34:13;4.45;;;3.60;;
4738;SDS011;2383;48.632;10.156;2023-04-10T17:38:15;4.07;;;3.55;;
4738;SDS011;2383;48.632;10.156;2023-04-10T17:42:17;3.22;;;2.90;;
4738;SDS011;2383;48.632;10.156;2023-04-10T17:46:19;3.35;;;2.90;;
4738;SDS011;2383;48.632;10.156;2023-04-10T17:50:21;4.15;;;3.30;;
4738;SDS011;2383;48.632;10.156;2023-04-10T17:54:23;5.88;;;4.18;;
4738;SDS011;2383;48.632;10.156;2023-04-10T17:58:26;5.38;;;4.53;;
4738;SDS011;2383;48.632;10.156;2023-04-10T18:02:27;4.95;;;3.55;;
4738;SDS011;2383;48.632;10.156;2023-04-10T18:06:30;4.43;;;3.60;;
4738;SDS011;2383;48.632;10.156;2023-04-10T18:10:32;8.27;;;4.85;;
4738;SDS011;2383;48.632;10.156;2023-04-10T18:14:34;20.33;;;10.98;;
4738;SDS011;2383;48.632;10.156;2023-04-10T18:18:37;17.45;;;8.75;;
4738;SDS011;2383;48.632;10.156;2023-04-10T18:22:42;18.63;;;8.07;;
4738;SDS011;2383;48.632;10.156;2023-04-10T18:26:43;12.98;;;7.30;;
4738;SDS011;2383;48.632;10.156;2023-04-10T18:30:46;17.08;;;6.43;;
4738;SDS011;2383;48.632;10.156;2023-04-10T18:34:48;7.88;;;5.15;;
4738;SDS011;2383;48.632;10.156;2023-04-10T18:38:50;5.00;;;3.60;;
4738;SDS011;2383;48.632;10.156;2023-04-10T18:42:52;6.00;;;4.00;;
4738;SDS011;2383;48.632;10.156;2023-04-10T18:46:54;6.13;;;4.80;;
4738;SDS011;2383;48.632;10.156;2023-04-10T18:51:05;10.02;;;7.22;;
4738;SDS011;2383;48.632;10.156;2023-04-10T18:55:07;8.48;;;6.97;;
4738;SDS011;2383;48.632;10.156;2023-04-10T18:59:09;6.05;;;5.13;;
4738;SDS011;2383;48.632;10.156;2023-04-10T19:03:11;6.05;;;4.43;;
4738;SDS011;2383;48.632;10.156;2023-04-10T19:07:14;6.53;;;4.35;;
4738;SDS011;2383;48.632;10.156;2023-04-10T19:11:16;6.38;;;5.10;;
4738;SDS011;2383;48.632;10.156;2023-04-10T19:15:19;7.35;;;5.43;;
4738;SDS011;2383;48.632;10.156;2023-04-10T19:19:21;9.18;;;4.60;;
4738;SDS011;2383;48.632;10.156;2023-04-10T19:23:22;6.82;;;5.50;;
4738;SDS011;2383;48.632;10.156;2023-04-10T19:27:25;5.70;;;4.72;;
4738;SDS011;2383;48.632;10.156;2023-04-10T19:31:27;6.20;;;5.22;;
4738;SDS011;2383;48.632;10.156;2023-04-10T19:35:30;5.57;;;4.97;;
4738;SDS011;2383;48.632;10.156;2023-04-10T19:39:32;4.68;;;3.85;;
4738;SDS011;2383;48.632;10.156;2023-04-10T19:43:34;9.27;;;5.65;;
4738;SDS011;2383;48.632;10.156;2023-04-10T19:47:35;6.90;;;5.32;;
4738;SDS011;2383;48.632;10.156;2023-04-10T19:51:38;5.47;;;4.70;;
4738;SDS011;2383;48.632;10.156;2023-04-10T19:55:40;8.60;;;5.07;;
4738;SDS011;2383;48.632;10.156;2023-04-10T19:59:44;5.80;;;4.30;;
4738;SDS011;2383;48.632;10.156;2023-04-10T20:03:46;6.32;;;5.20;;
4738;SDS011;2383;48.632;10.156;2023-04-10T20:07:49;9.80;;;6.78;;
4738;SDS011;2383;48.632;10.156;2023-04-10T20:11:51;8.63;;;6.53;;
4738;SDS011;2383;48.632;10.156;2023-04-10T20:15:53;7.35;;;5.30;;
4738;SDS011;2383;48.632;10.156;2023-04-10T20:19:55;8.27;;;5.88;;
4738;SDS011;2383;48.632;10.156;2023-04-10T20:23:58;11.32;;;7.43;;
4738;SDS011;2383;48.632;10.156;2023-04-10T20:28:00;11.55;;;7.93;;
4738;SDS011;2383;48.632;10.156;2023-04-10T20:32:02;9.98;;;6.55;;
4738;SDS011;2383;48.632;10.156;2023-04-10T20:36:04;14.88;;;7.22;;
4738;SDS011;2383;48.632;10.156;2023-04-10T20:40:06;11.98;;;6.78;;
4738;SDS011;2383;48.632;10.156;2023-04-10T20:44:08;16.45;;;7.68;;
4738;SDS011;2383;48.632;10.156;2023-04-10T20:48:10;11.87;;;6.40;;
4738;SDS011;2383;48.632;10.156;2023-04-10T20:52:12;6.07;;;4.70;;
4738;SDS011;2383;48.632;10.156;2023-04-10T20:56:14;4.63;;;3.97;;
4738;SDS011;2383;48.632;10.156;2023-04-10T21:00:17;4.10;;;3.70;;
4738;SDS011;2383;48.632;10.156;2023-04-10T21:04:19;5.47;;;4.00;;
4738;SDS011;2383;48.632;10.156;2023-04-10T21:08:21;5.32;;;4.07;;
4738;SDS011;2383;48.632;10.156;2023-04-10T21:12:23;5.35;;;3.53;;
4738;SDS011;2383;48.632;10.156;2023-04-10T21:16:25;5.30;;;4.03;;
4738;SDS011;2383;48.632;10.156;2023-04-10T21:20:27;5.45;;;4.18;;
4738;SDS011;2383;48.632;10.156;2023-04-10T21:24:29;7.00;;;4.82;;
4738;SDS011;2383;48.632;10.156;2023-04-10T21:28:31;8.15;;;5.15;;
4738;SDS011;2383;48.632;10.156;2023-04-10T21:32:33;4.95;;;4.10;;
4738;SDS011;2383;48.632;10.156;2023-04-10T21:36:35;4.57;;;3.88;;
4738;SDS011;2383;48.632;10.156;2023-04-10T21:40:38;4.63;;;3.90;;
4738;SDS011;2383;48.632;10.156;2023-04-10T21:44:40;5.17;;;3.90;;
4738;SDS011;2383;48.632;10.156;2023-04-10T21:48:42;6.57;;;4.38;;
4738;SDS011;2383;48.632;10.156;2023-04-10T21:52:44;7.47;;;6.17;;
4738;SDS011;2383;48.632;10.156;2023-04-10T21:56:47;5.03;;;4.43;;
4738;SDS011;2383;48.632;10.156;2023-04-10T22:00:48;7.07;;;4.75;;
4738;SDS011;2383;48.632;10.156;2023-04-10T22:04:52;7.77;;;5.13;;
4738;SDS011;2383;48.632;10.156;2023-04-10T22:08:55;6.67;;;4.67;;
4738;SDS011;2383;48.632;10.156;2023-04-10T22:12:57;5.83;;;4.37;;
4738;SDS011;2383;48.632;10.156;2023-04-10T22:16:59;6.67;;;4.60;;
4738;SDS011;2383;48.632;10.156;2023-04-10T22:21:01;5.43;;;4.40;;
4738;SDS011;2383;48.632;10.156;2023-04-10T22:25:03;5.93;;;4.80;;
4738;SDS011;2383;48.632;10.156;2023-04-10T22:29:05;8.30;;;4.60;;
4738;SDS011;2383;48.632;10.156;2023-04-10T22:33:08;4.97;;;4.30;;
4738;SDS011;2383;48.632;10.156;2023-04-10T22:37:12;7.07;;;4.50;;
4738;SDS011;2383;48.632;10.156;2023-04-10T22:41:13;9.17;;;4.80;;
4738;SDS011;2383;48.632;10.156;2023-04-10T22:45:16;6.67;;;4.47;;
4738;SDS011;2383;48.632;10.156;2023-04-10T22:49:18;6.30;;;4.20;;
4738;SDS011;2383;48.632;10.156;2023-04-10T22:53:20;6.13;;;4.47;;
4738;SDS011;2383;48.632;10.156;2023-04-10T22:57:22;6.13;;;4.47;;
4738;SDS011;2383;48.632;10.156;2023-04-10T23:01:24;6.57;;;5.20;;
4738;SDS011;2383;48.632;10.156;2023-04-10T23:05:26;8.13;;;5.17;;
4738;SDS011;2383;48.632;10.156;2023-04-10T23:09:28;6.97;;;4.87;;
4738;SDS011;2383;48.632;10.156;2023-04-10T23:13:30;7.77;;;4.70;;
4738;SDS011;2383;48.632;10.156;2023-04-10T23:17:32;6.77;;;4.70;;
4738;SDS011;2383;48.632;10.156;2023-04-10T23:21:34;5.68;;;4.47;;
4738;SDS011;2383;48.632;10.156;2023-04-10T23:25:36;5.80;;;5.00;;
4738;SDS011;2383;48.632;10.156;2023-04-10T23:29:38;5.57;;;4.83;;
4738;SDS011;2383;48.632;10.156;2023-04-10T23:33:40;5.17;;;4.50;;
4738;SDS011;2383;48.632;10.156;2023-04-10T23:37:42;7.50;;;5.40;;
4738;SDS011;2383;48.632;10.156;2023-04-10T23:41:43;8.17;;;5.73;;
4738;SDS011;2383;48.632;10.156;2023-04-10T23:45:45;7.57;;;5.53;;
4738;SDS011;2383;48.632;10.156;2023-04-10T23:49:47;9.43;;;6.10;;
4738;SDS011;2383;48.632;10.156;2023-04-10T23:53:49;8.90;;;5.50;;
4738;SDS011;2383;48.632;10.156;2023-04-10T23:57:52;7.72;;;6.03;;
